Thursday, January 17, 2019, 11:51 AM GMT
Back to Local

CYZX, Greenwood, N. S.

Location: , , Canada Lat: 44.983
Local Time: 11:51 AM GMT (11:51 GMT) Lon: -64.917
Time Zone: GMT Elev: 91 ft

Show me the last for .
Show Decoded

2019-01-17 11:00 METAR CYZX 171100Z 30011G19KT 15SM BKN026 M09/M15 A3012 RMK SC6 SLP203 =
2019-01-17 10:00 METAR CYZX 171000Z 31008G16KT 15SM BKN026 M08/M13 A3008 RMK SC7 SLP189 =
2019-01-17 09:00 METAR CYZX 170900Z 30011KT 15SM SCT020 OVC030 M07/M12 A3004 RMK SC3SC5 SLP176 =
2019-01-17 08:00 METAR CYZX 170800Z 29017G22KT 15SM FEW020 BKN030 M05/M13 A3000 RMK SC2SC2 PRESRR
                 SLP161 =
2019-01-17 07:00 METAR CYZX 170700Z 28016G25KT 15SM FEW020 BKN030 M02/M09 A2994 RMK SC2SC3 SLP140
                 =
2019-01-17 06:08 METAR CYZX 170608Z 26019G25KT 15SM SCT020 BKN070 M00/M06 A2990 RMK SC3AC2 PRESRR
                 SLP127 =
2019-01-17 06:00 METAR CYZX 170600Z 25016G27KT 15SM -SHSN FEW017 BKN030 M00/M06 A2989 RMK SC2SC5
                 PCPN VRY LGT SLP124 =
2019-01-17 05:00 METAR CYZX 170500Z 28021G27KT 15SM -SHSN SCT017 OVC030 00/M04 A2986 RMK SC3SC5
                 PCPN VRY LGT SLP112 =
2019-01-17 04:23 METAR CYZX 170423Z 26018G31KT 12SM -SHSN FEW018 BKN028 00/M02 A2985 RMK SC2SC5
                 SLP109 =
2019-01-17 04:00 METAR CYZX 170400Z 23008KT 15SM FEW018 BKN030 00/M03 A2984 RMK SC2SC4 SLP107 =
2019-01-17 03:00 METAR CYZX 170300Z 23007KT 12SM FEW018 BKN030 00/M02 A2984 RMK SC2SC2 SLP107 =
2019-01-17 02:00 METAR CYZX 170200Z 24012KT 12SM FEW018 SCT026 01/M01 A2983 RMK SC2SC2 SLP104 =
2019-01-17 01:41 METAR CYZX 170141Z 24011G16KT 12SM FEW018 SCT026 01/M01 A2982 RMK SC2SC2 SLP100
                 =
2019-01-17 01:00 METAR CYZX 170100Z 22010KT 6SM -SHSN SCT018 OVC027 01/M01 A2981 RMK SC3SC5
                 SLP095 =
2019-01-17 00:10 METAR CYZX 170010Z 21008KT 10SM -SHSN SCT022 OVC027 01/M01 A2980 RMK SC3SC5 PCPN
                 VRY LGT SLP094 =
2019-01-17 00:00 METAR CYZX 170000Z 25006KT 10SM -SN OVC025 01/M01 A2981 RMK SC8 PCPN VRY LGT
                 SLP095 =
2019-01-16 23:00 METAR CYZX 162300Z 20011KT 15SM -SN OVC025 01/M01 A2982 RMK SC8 PCPN VRY LGT OBS
                 TAKEN +1 SLP099 =
2019-01-16 22:27 METAR CYZX 162227Z 20011G16KT 15SM -SN OVC025 01/M01 A2982 RMK SC8 SLP099 =
2019-01-16 22:00 METAR CYZX 162200Z 20012G18KT 15SM OVC025 01/M01 A2982 RMK SC8 SLP100 =
2019-01-16 21:00 METAR CYZX 162100Z 19012KT 15SM OVC025 01/M02 A2983 RMK SC8 SLP104 =
2019-01-16 20:00 METAR CYZX 162000Z 16012G17KT 15SM OVC040 01/M00 A2985 RMK SC8 SLP110 =
2019-01-16 19:00 METAR CYZX 161900Z 17010G19KT 15SM OVC040 01/00 A2988 RMK SC8 SLP120 =
2019-01-16 18:00 METAR CYZX 161800Z 17009KT 15SM OVC042 01/M02 A2990 RMK SC8 SLP128 =
2019-01-16 17:00 METAR CYZX 161700Z 18011G20KT 15SM SCT030 BKN250 01/M04 A2994 RMK CU3CI2 SLP142
                 =
2019-01-16 16:00 METAR CYZX 161600Z 21010KT 15SM FEW060 BKN250 M01/M05 A2998 RMK SC2CI5 SLP154 =
2019-01-16 15:00 METAR CYZX 161500Z 05003KT 15SM OVC060 M04/M06 A3003 RMK SC8 SLP170 =
2019-01-16 14:00 METAR CYZX 161400Z 26002KT 12SM BKN055 M06/M07 A3005 RMK SC6 SLP179 =
2019-01-16 13:00 METAR CYZX 161300Z 07003KT 10SM FEW036 FEW240 M08/M10 A3005 RMK SC1CS2 FROIN
                 PCPN VRY LGT SLP179 =
2019-01-16 12:23 METAR CYZX 161223Z 00000KT 8SM -SHSN FEW036 OVC240 M09/M10 A3005 RMK SC2CS6 PCPN
                 VRY LGT SUN DIMLY VISBL SLP177 =
2019-01-16 12:00 METAR CYZX 161200Z 00000KT 8SM -SHSN FEW036 OVC240 M07/M08 A3005 RMK SC2CI6 PCPN
                 VRY LGT SLP177 =

Support USWX by starting your Amazon purchase here.